sensor_id;sensor_type;location;lat;lon;timestamp;P1;durP1;ratioP1;P2;durP2;ratioP2
8317;SDS011;4196;48.926;8.964;2023-03-31T00:00:13;3.70;;;1.47;;
8317;SDS011;4196;48.926;8.964;2023-03-31T00:03:00;3.63;;;1.63;;
8317;SDS011;4196;48.926;8.964;2023-03-31T00:05:48;2.40;;;1.33;;
8317;SDS011;4196;48.926;8.964;2023-03-31T00:08:38;2.00;;;1.37;;
8317;SDS011;4196;48.926;8.964;2023-03-31T00:11:27;2.13;;;1.50;;
8317;SDS011;4196;48.926;8.964;2023-03-31T00:14:15;4.00;;;1.70;;
8317;SDS011;4196;48.926;8.964;2023-03-31T00:17:04;1.80;;;1.40;;
8317;SDS011;4196;48.926;8.964;2023-03-31T00:19:51;3.63;;;1.50;;
8317;SDS011;4196;48.926;8.964;2023-03-31T00:22:38;3.13;;;1.67;;
8317;SDS011;4196;48.926;8.964;2023-03-31T00:25:27;2.43;;;1.37;;
8317;SDS011;4196;48.926;8.964;2023-03-31T00:28:14;2.63;;;2.43;;
8317;SDS011;4196;48.926;8.964;2023-03-31T00:31:01;2.53;;;1.40;;
8317;SDS011;4196;48.926;8.964;2023-03-31T00:33:49;1.70;;;1.30;;
8317;SDS011;4196;48.926;8.964;2023-03-31T00:36:36;3.23;;;1.37;;
8317;SDS011;4196;48.926;8.964;2023-03-31T00:39:32;2.53;;;1.40;;
8317;SDS011;4196;48.926;8.964;2023-03-31T00:42:20;5.90;;;1.50;;
8317;SDS011;4196;48.926;8.964;2023-03-31T00:50:52;2.30;;;1.37;;
8317;SDS011;4196;48.926;8.964;2023-03-31T00:53:40;4.30;;;1.47;;
8317;SDS011;4196;48.926;8.964;2023-03-31T00:56:27;2.53;;;1.30;;
8317;SDS011;4196;48.926;8.964;2023-03-31T00:59:19;3.13;;;1.63;;
8317;SDS011;4196;48.926;8.964;2023-03-31T01:02:12;2.03;;;1.37;;
8317;SDS011;4196;48.926;8.964;2023-03-31T01:05:00;3.43;;;1.50;;
8317;SDS011;4196;48.926;8.964;2023-03-31T01:07:48;4.47;;;1.50;;
8317;SDS011;4196;48.926;8.964;2023-03-31T01:10:38;4.00;;;2.43;;
8317;SDS011;4196;48.926;8.964;2023-03-31T01:13:29;2.77;;;1.47;;
8317;SDS011;4196;48.926;8.964;2023-03-31T01:16:17;2.90;;;1.47;;
8317;SDS011;4196;48.926;8.964;2023-03-31T01:19:05;7.40;;;1.50;;
8317;SDS011;4196;48.926;8.964;2023-03-31T01:22:10;4.07;;;1.50;;
8317;SDS011;4196;48.926;8.964;2023-03-31T01:25:14;4.43;;;1.40;;
8317;SDS011;4196;48.926;8.964;2023-03-31T01:43:37;3.00;;;1.30;;
8317;SDS011;4196;48.926;8.964;2023-03-31T01:46:53;3.30;;;1.50;;
8317;SDS011;4196;48.926;8.964;2023-03-31T01:50:03;10.83;;;2.17;;
8317;SDS011;4196;48.926;8.964;2023-03-31T01:53:04;2.50;;;1.50;;
8317;SDS011;4196;48.926;8.964;2023-03-31T02:01:57;2.73;;;1.20;;
8317;SDS011;4196;48.926;8.964;2023-03-31T02:04:56;4.90;;;1.77;;
8317;SDS011;4196;48.926;8.964;2023-03-31T02:07:49;4.43;;;2.33;;
8317;SDS011;4196;48.926;8.964;2023-03-31T02:10:41;3.07;;;1.03;;
8317;SDS011;4196;48.926;8.964;2023-03-31T02:13:30;5.17;;;1.97;;
8317;SDS011;4196;48.926;8.964;2023-03-31T02:16:21;3.97;;;2.20;;
8317;SDS011;4196;48.926;8.964;2023-03-31T02:19:12;5.07;;;1.50;;
8317;SDS011;4196;48.926;8.964;2023-03-31T02:22:04;4.63;;;1.20;;
8317;SDS011;4196;48.926;8.964;2023-03-31T02:24:55;4.23;;;1.20;;
8317;SDS011;4196;48.926;8.964;2023-03-31T02:27:45;3.53;;;1.20;;
8317;SDS011;4196;48.926;8.964;2023-03-31T02:33:46;2.40;;;1.43;;
8317;SDS011;4196;48.926;8.964;2023-03-31T02:36:34;5.40;;;1.60;;
8317;SDS011;4196;48.926;8.964;2023-03-31T02:39:26;1.43;;;1.20;;
8317;SDS011;4196;48.926;8.964;2023-03-31T02:42:17;1.80;;;1.17;;
8317;SDS011;4196;48.926;8.964;2023-03-31T02:48:36;2.00;;;1.20;;
8317;SDS011;4196;48.926;8.964;2023-03-31T02:51:28;2.97;;;1.20;;
8317;SDS011;4196;48.926;8.964;2023-03-31T02:57:56;5.93;;;1.57;;
8317;SDS011;4196;48.926;8.964;2023-03-31T03:01:04;2.20;;;1.40;;
8317;SDS011;4196;48.926;8.964;2023-03-31T03:10:07;5.53;;;1.27;;
8317;SDS011;4196;48.926;8.964;2023-03-31T03:15:56;4.47;;;2.20;;
8317;SDS011;4196;48.926;8.964;2023-03-31T03:18:57;2.60;;;1.40;;
8317;SDS011;4196;48.926;8.964;2023-03-31T03:21:45;3.50;;;1.50;;
8317;SDS011;4196;48.926;8.964;2023-03-31T03:24:32;4.30;;;2.33;;
8317;SDS011;4196;48.926;8.964;2023-03-31T03:27:19;8.17;;;1.70;;
8317;SDS011;4196;48.926;8.964;2023-03-31T03:30:10;1.97;;;1.67;;
8317;SDS011;4196;48.926;8.964;2023-03-31T03:32:57;1.80;;;1.57;;
8317;SDS011;4196;48.926;8.964;2023-03-31T03:35:44;2.93;;;1.70;;
8317;SDS011;4196;48.926;8.964;2023-03-31T03:38:31;2.83;;;1.70;;
8317;SDS011;4196;48.926;8.964;2023-03-31T03:41:17;5.73;;;1.97;;
8317;SDS011;4196;48.926;8.964;2023-03-31T03:44:04;2.27;;;1.80;;
8317;SDS011;4196;48.926;8.964;2023-03-31T03:46:50;5.00;;;1.70;;
8317;SDS011;4196;48.926;8.964;2023-03-31T03:49:37;3.00;;;1.40;;
8317;SDS011;4196;48.926;8.964;2023-03-31T03:52:23;4.60;;;2.37;;
8317;SDS011;4196;48.926;8.964;2023-03-31T03:55:09;3.20;;;1.60;;
8317;SDS011;4196;48.926;8.964;2023-03-31T03:57:57;6.10;;;1.90;;
8317;SDS011;4196;48.926;8.964;2023-03-31T04:00:43;3.67;;;2.20;;
8317;SDS011;4196;48.926;8.964;2023-03-31T04:03:30;5.23;;;1.83;;
8317;SDS011;4196;48.926;8.964;2023-03-31T04:06:17;6.17;;;2.27;;
8317;SDS011;4196;48.926;8.964;2023-03-31T04:09:03;10.23;;;3.00;;
8317;SDS011;4196;48.926;8.964;2023-03-31T04:11:50;3.97;;;2.83;;
8317;SDS011;4196;48.926;8.964;2023-03-31T04:14:36;2.97;;;2.00;;
8317;SDS011;4196;48.926;8.964;2023-03-31T04:17:23;3.53;;;2.23;;
8317;SDS011;4196;48.926;8.964;2023-03-31T04:20:18;4.73;;;2.40;;
8317;SDS011;4196;48.926;8.964;2023-03-31T04:23:04;3.00;;;2.03;;
8317;SDS011;4196;48.926;8.964;2023-03-31T04:25:54;5.63;;;2.20;;
8317;SDS011;4196;48.926;8.964;2023-03-31T04:28:40;3.23;;;1.90;;
8317;SDS011;4196;48.926;8.964;2023-03-31T04:31:35;2.90;;;2.30;;
8317;SDS011;4196;48.926;8.964;2023-03-31T04:34:24;3.50;;;2.57;;
8317;SDS011;4196;48.926;8.964;2023-03-31T04:37:19;3.83;;;2.67;;
8317;SDS011;4196;48.926;8.964;2023-03-31T04:40:05;4.73;;;2.30;;
8317;SDS011;4196;48.926;8.964;2023-03-31T04:42:53;3.90;;;2.50;;
8317;SDS011;4196;48.926;8.964;2023-03-31T04:45:39;3.47;;;2.97;;
8317;SDS011;4196;48.926;8.964;2023-03-31T04:48:26;7.17;;;2.90;;
8317;SDS011;4196;48.926;8.964;2023-03-31T04:51:12;3.73;;;2.30;;
8317;SDS011;4196;48.926;8.964;2023-03-31T04:54:00;7.37;;;3.57;;
8317;SDS011;4196;48.926;8.964;2023-03-31T04:56:47;6.23;;;2.97;;
8317;SDS011;4196;48.926;8.964;2023-03-31T04:59:34;5.83;;;2.27;;
8317;SDS011;4196;48.926;8.964;2023-03-31T05:02:24;5.13;;;2.30;;
8317;SDS011;4196;48.926;8.964;2023-03-31T05:05:10;7.20;;;3.27;;
8317;SDS011;4196;48.926;8.964;2023-03-31T05:07:57;6.27;;;2.40;;
8317;SDS011;4196;48.926;8.964;2023-03-31T05:10:43;4.93;;;1.97;;
8317;SDS011;4196;48.926;8.964;2023-03-31T05:13:30;5.23;;;2.60;;
8317;SDS011;4196;48.926;8.964;2023-03-31T05:16:16;7.80;;;2.67;;
8317;SDS011;4196;48.926;8.964;2023-03-31T05:19:03;5.77;;;2.57;;
8317;SDS011;4196;48.926;8.964;2023-03-31T05:21:49;5.10;;;2.50;;
8317;SDS011;4196;48.926;8.964;2023-03-31T05:24:36;6.20;;;3.13;;
8317;SDS011;4196;48.926;8.964;2023-03-31T05:27:22;8.03;;;3.67;;
8317;SDS011;4196;48.926;8.964;2023-03-31T05:30:09;5.77;;;3.00;;
8317;SDS011;4196;48.926;8.964;2023-03-31T05:32:56;12.13;;;4.13;;
8317;SDS011;4196;48.926;8.964;2023-03-31T05:35:43;6.50;;;3.30;;
8317;SDS011;4196;48.926;8.964;2023-03-31T05:38:30;5.70;;;3.60;;
8317;SDS011;4196;48.926;8.964;2023-03-31T05:41:17;6.37;;;3.90;;
8317;SDS011;4196;48.926;8.964;2023-03-31T05:44:06;7.03;;;3.57;;
8317;SDS011;4196;48.926;8.964;2023-03-31T05:46:56;7.00;;;3.40;;
8317;SDS011;4196;48.926;8.964;2023-03-31T05:49:42;5.53;;;2.80;;
8317;SDS011;4196;48.926;8.964;2023-03-31T05:52:29;11.37;;;4.20;;
8317;SDS011;4196;48.926;8.964;2023-03-31T05:55:18;7.83;;;3.43;;
8317;SDS011;4196;48.926;8.964;2023-03-31T05:58:04;4.10;;;3.00;;
8317;SDS011;4196;48.926;8.964;2023-03-31T06:03:51;5.03;;;3.60;;
8317;SDS011;4196;48.926;8.964;2023-03-31T06:06:38;4.80;;;3.07;;
8317;SDS011;4196;48.926;8.964;2023-03-31T06:09:24;5.57;;;3.43;;
8317;SDS011;4196;48.926;8.964;2023-03-31T06:12:11;5.97;;;3.63;;
8317;SDS011;4196;48.926;8.964;2023-03-31T06:14:57;9.20;;;3.47;;
8317;SDS011;4196;48.926;8.964;2023-03-31T06:17:43;9.67;;;3.37;;
8317;SDS011;4196;48.926;8.964;2023-03-31T06:20:30;7.30;;;4.03;;
8317;SDS011;4196;48.926;8.964;2023-03-31T06:23:16;6.30;;;3.00;;
8317;SDS011;4196;48.926;8.964;2023-03-31T06:26:06;5.33;;;3.03;;
8317;SDS011;4196;48.926;8.964;2023-03-31T06:28:53;9.50;;;3.47;;
8317;SDS011;4196;48.926;8.964;2023-03-31T06:31:40;9.00;;;3.57;;
8317;SDS011;4196;48.926;8.964;2023-03-31T06:34:27;10.90;;;3.53;;
8317;SDS011;4196;48.926;8.964;2023-03-31T06:37:13;9.03;;;3.67;;
8317;SDS011;4196;48.926;8.964;2023-03-31T06:40:00;6.27;;;3.43;;
8317;SDS011;4196;48.926;8.964;2023-03-31T06:42:46;7.97;;;3.47;;
8317;SDS011;4196;48.926;8.964;2023-03-31T06:45:33;7.67;;;4.10;;
8317;SDS011;4196;48.926;8.964;2023-03-31T06:48:19;14.70;;;6.00;;
8317;SDS011;4196;48.926;8.964;2023-03-31T06:51:08;10.77;;;5.83;;
8317;SDS011;4196;48.926;8.964;2023-03-31T06:53:55;10.87;;;6.10;;
8317;SDS011;4196;48.926;8.964;2023-03-31T06:56:41;11.37;;;5.90;;
8317;SDS011;4196;48.926;8.964;2023-03-31T06:59:28;8.97;;;4.30;;
8317;SDS011;4196;48.926;8.964;2023-03-31T07:02:14;6.53;;;4.80;;
8317;SDS011;4196;48.926;8.964;2023-03-31T07:05:01;8.63;;;3.20;;
8317;SDS011;4196;48.926;8.964;2023-03-31T07:07:48;9.40;;;4.10;;
8317;SDS011;4196;48.926;8.964;2023-03-31T07:10:34;9.80;;;3.70;;
8317;SDS011;4196;48.926;8.964;2023-03-31T07:13:21;9.17;;;3.90;;
8317;SDS011;4196;48.926;8.964;2023-03-31T07:16:07;7.13;;;3.93;;
8317;SDS011;4196;48.926;8.964;2023-03-31T07:18:55;5.83;;;2.87;;
8317;SDS011;4196;48.926;8.964;2023-03-31T07:21:44;4.57;;;2.70;;
8317;SDS011;4196;48.926;8.964;2023-03-31T07:24:31;6.37;;;2.77;;
8317;SDS011;4196;48.926;8.964;2023-03-31T07:27:17;4.43;;;2.43;;
8317;SDS011;4196;48.926;8.964;2023-03-31T07:30:04;4.80;;;2.97;;
8317;SDS011;4196;48.926;8.964;2023-03-31T07:32:52;3.00;;;2.20;;
8317;SDS011;4196;48.926;8.964;2023-03-31T07:35:39;5.67;;;2.33;;
8317;SDS011;4196;48.926;8.964;2023-03-31T07:38:26;4.00;;;2.40;;
8317;SDS011;4196;48.926;8.964;2023-03-31T07:41:14;4.37;;;2.03;;
8317;SDS011;4196;48.926;8.964;2023-03-31T07:44:03;3.00;;;1.73;;
8317;SDS011;4196;48.926;8.964;2023-03-31T07:46:49;2.13;;;1.57;;
8317;SDS011;4196;48.926;8.964;2023-03-31T07:49:36;2.47;;;1.60;;
8317;SDS011;4196;48.926;8.964;2023-03-31T07:52:23;2.63;;;1.60;;
8317;SDS011;4196;48.926;8.964;2023-03-31T07:55:10;1.90;;;1.70;;
8317;SDS011;4196;48.926;8.964;2023-03-31T07:57:57;1.90;;;1.40;;
8317;SDS011;4196;48.926;8.964;2023-03-31T08:00:44;3.13;;;1.60;;
8317;SDS011;4196;48.926;8.964;2023-03-31T08:03:31;4.27;;;1.27;;
8317;SDS011;4196;48.926;8.964;2023-03-31T08:06:18;3.63;;;1.37;;
8317;SDS011;4196;48.926;8.964;2023-03-31T08:09:06;1.80;;;1.30;;
8317;SDS011;4196;48.926;8.964;2023-03-31T08:11:53;1.40;;;1.30;;
8317;SDS011;4196;48.926;8.964;2023-03-31T08:14:41;2.87;;;1.37;;
8317;SDS011;4196;48.926;8.964;2023-03-31T08:17:28;1.20;;;1.10;;
8317;SDS011;4196;48.926;8.964;2023-03-31T08:20:14;1.63;;;1.27;;
8317;SDS011;4196;48.926;8.964;2023-03-31T08:23:01;1.50;;;1.17;;
8317;SDS011;4196;48.926;8.964;2023-03-31T08:25:47;3.43;;;1.27;;
8317;SDS011;4196;48.926;8.964;2023-03-31T08:28:34;2.63;;;1.00;;
8317;SDS011;4196;48.926;8.964;2023-03-31T08:31:21;3.73;;;1.10;;
8317;SDS011;4196;48.926;8.964;2023-03-31T08:34:12;2.40;;;1.87;;
8317;SDS011;4196;48.926;8.964;2023-03-31T08:37:00;1.40;;;1.10;;
8317;SDS011;4196;48.926;8.964;2023-03-31T08:39:48;4.17;;;1.60;;
8317;SDS011;4196;48.926;8.964;2023-03-31T08:42:38;1.67;;;1.10;;
8317;SDS011;4196;48.926;8.964;2023-03-31T08:45:35;2.50;;;1.40;;
8317;SDS011;4196;48.926;8.964;2023-03-31T08:48:37;3.47;;;1.83;;
8317;SDS011;4196;48.926;8.964;2023-03-31T08:51:35;1.30;;;1.00;;
8317;SDS011;4196;48.926;8.964;2023-03-31T08:57:25;1.80;;;1.27;;
8317;SDS011;4196;48.926;8.964;2023-03-31T09:00:17;2.30;;;1.20;;
8317;SDS011;4196;48.926;8.964;2023-03-31T09:03:05;1.47;;;1.17;;
8317;SDS011;4196;48.926;8.964;2023-03-31T09:06:04;4.80;;;1.27;;
8317;SDS011;4196;48.926;8.964;2023-03-31T09:08:54;1.83;;;1.20;;
8317;SDS011;4196;48.926;8.964;2023-03-31T09:11:48;6.23;;;1.30;;
8317;SDS011;4196;48.926;8.964;2023-03-31T09:14:40;5.33;;;1.60;;
8317;SDS011;4196;48.926;8.964;2023-03-31T09:17:40;6.30;;;2.03;;
8317;SDS011;4196;48.926;8.964;2023-03-31T09:20:33;2.97;;;1.30;;
8317;SDS011;4196;48.926;8.964;2023-03-31T09:23:26;4.30;;;1.00;;
8317;SDS011;4196;48.926;8.964;2023-03-31T09:26:29;2.57;;;1.27;;
8317;SDS011;4196;48.926;8.964;2023-03-31T09:32:35;2.90;;;1.30;;
8317;SDS011;4196;48.926;8.964;2023-03-31T09:35:24;2.50;;;1.17;;
8317;SDS011;4196;48.926;8.964;2023-03-31T09:38:11;5.20;;;1.97;;
8317;SDS011;4196;48.926;8.964;2023-03-31T09:41:00;3.17;;;1.37;;
8317;SDS011;4196;48.926;8.964;2023-03-31T09:43:48;7.13;;;1.80;;
8317;SDS011;4196;48.926;8.964;2023-03-31T09:46:36;1.80;;;1.43;;
8317;SDS011;4196;48.926;8.964;2023-03-31T09:49:25;4.63;;;1.40;;
8317;SDS011;4196;48.926;8.964;2023-03-31T09:52:27;2.00;;;1.13;;
8317;SDS011;4196;48.926;8.964;2023-03-31T09:58:45;1.97;;;1.20;;
8317;SDS011;4196;48.926;8.964;2023-03-31T10:01:32;3.70;;;1.20;;
8317;SDS011;4196;48.926;8.964;2023-03-31T10:04:22;4.20;;;1.40;;
8317;SDS011;4196;48.926;8.964;2023-03-31T10:07:11;3.00;;;1.20;;
8317;SDS011;4196;48.926;8.964;2023-03-31T10:09:58;4.07;;;1.50;;
8317;SDS011;4196;48.926;8.964;2023-03-31T10:12:49;3.17;;;1.03;;
8317;SDS011;4196;48.926;8.964;2023-03-31T10:15:39;5.77;;;1.37;;
8317;SDS011;4196;48.926;8.964;2023-03-31T10:18:34;3.40;;;1.60;;
8317;SDS011;4196;48.926;8.964;2023-03-31T10:21:27;3.50;;;1.53;;
8317;SDS011;4196;48.926;8.964;2023-03-31T10:24:22;5.33;;;1.50;;
8317;SDS011;4196;48.926;8.964;2023-03-31T10:30:17;3.53;;;1.47;;
8317;SDS011;4196;48.926;8.964;2023-03-31T10:33:12;5.83;;;2.40;;
8317;SDS011;4196;48.926;8.964;2023-03-31T10:36:12;2.90;;;0.90;;
8317;SDS011;4196;48.926;8.964;2023-03-31T10:39:05;1.50;;;1.00;;
8317;SDS011;4196;48.926;8.964;2023-03-31T10:41:52;0.93;;;0.67;;
8317;SDS011;4196;48.926;8.964;2023-03-31T10:44:38;2.07;;;0.90;;
8317;SDS011;4196;48.926;8.964;2023-03-31T10:47:25;1.73;;;0.93;;
8317;SDS011;4196;48.926;8.964;2023-03-31T10:50:17;3.63;;;1.67;;
8317;SDS011;4196;48.926;8.964;2023-03-31T10:53:05;1.20;;;0.87;;
8317;SDS011;4196;48.926;8.964;2023-03-31T10:56:00;2.13;;;1.17;;
8317;SDS011;4196;48.926;8.964;2023-03-31T11:18:12;1.83;;;0.80;;
8317;SDS011;4196;48.926;8.964;2023-03-31T11:21:16;1.60;;;0.80;;
8317;SDS011;4196;48.926;8.964;2023-03-31T11:27:36;2.63;;;0.53;;
8317;SDS011;4196;48.926;8.964;2023-03-31T11:30:41;2.03;;;0.43;;
8317;SDS011;4196;48.926;8.964;2023-03-31T11:39:50;0.20;;;0.20;;
8317;SDS011;4196;48.926;8.964;2023-03-31T11:43:16;0.53;;;0.53;;
8317;SDS011;4196;48.926;8.964;2023-03-31T11:46:18;0.30;;;0.30;;
8317;SDS011;4196;48.926;8.964;2023-03-31T11:49:17;1.30;;;0.53;;
8317;SDS011;4196;48.926;8.964;2023-03-31T11:52:10;0.50;;;0.40;;
8317;SDS011;4196;48.926;8.964;2023-03-31T11:55:04;0.47;;;0.37;;
8317;SDS011;4196;48.926;8.964;2023-03-31T11:58:09;2.10;;;0.40;;
8317;SDS011;4196;48.926;8.964;2023-03-31T12:04:04;1.53;;;0.50;;
8317;SDS011;4196;48.926;8.964;2023-03-31T12:06:57;1.77;;;0.67;;
8317;SDS011;4196;48.926;8.964;2023-03-31T12:16:41;1.13;;;0.73;;
8317;SDS011;4196;48.926;8.964;2023-03-31T12:22:37;0.90;;;0.70;;
8317;SDS011;4196;48.926;8.964;2023-03-31T12:28:41;1.60;;;0.83;;
8317;SDS011;4196;48.926;8.964;2023-03-31T12:31:31;2.40;;;1.07;;
8317;SDS011;4196;48.926;8.964;2023-03-31T12:34:18;2.33;;;1.07;;
8317;SDS011;4196;48.926;8.964;2023-03-31T12:37:13;1.60;;;0.90;;
8317;SDS011;4196;48.926;8.964;2023-03-31T12:52:48;2.50;;;0.87;;
8317;SDS011;4196;48.926;8.964;2023-03-31T12:55:43;6.43;;;1.47;;
8317;SDS011;4196;48.926;8.964;2023-03-31T12:58:42;5.27;;;2.03;;
8317;SDS011;4196;48.926;8.964;2023-03-31T13:01:33;1.97;;;1.10;;
8317;SDS011;4196;48.926;8.964;2023-03-31T13:04:20;4.20;;;0.97;;
8317;SDS011;4196;48.926;8.964;2023-03-31T13:07:12;1.17;;;0.90;;
8317;SDS011;4196;48.926;8.964;2023-03-31T13:13:05;0.80;;;0.57;;
8317;SDS011;4196;48.926;8.964;2023-03-31T13:15:58;1.00;;;0.80;;
8317;SDS011;4196;48.926;8.964;2023-03-31T13:18:50;1.13;;;0.77;;
8317;SDS011;4196;48.926;8.964;2023-03-31T13:21:51;1.07;;;0.50;;
8317;SDS011;4196;48.926;8.964;2023-03-31T13:24:39;0.57;;;0.57;;
8317;SDS011;4196;48.926;8.964;2023-03-31T13:27:31;3.83;;;0.80;;
8317;SDS011;4196;48.926;8.964;2023-03-31T13:30:54;1.50;;;0.60;;
8317;SDS011;4196;48.926;8.964;2023-03-31T13:33:50;1.87;;;0.70;;
8317;SDS011;4196;48.926;8.964;2023-03-31T13:40:17;0.63;;;0.60;;
8317;SDS011;4196;48.926;8.964;2023-03-31T13:56:12;1.00;;;0.80;;
8317;SDS011;4196;48.926;8.964;2023-03-31T13:59:21;0.77;;;0.40;;
8317;SDS011;4196;48.926;8.964;2023-03-31T14:08:22;1.97;;;0.60;;
8317;SDS011;4196;48.926;8.964;2023-03-31T14:11:31;0.40;;;0.40;;
8317;SDS011;4196;48.926;8.964;2023-03-31T14:14:18;1.33;;;0.80;;
8317;SDS011;4196;48.926;8.964;2023-03-31T14:17:04;1.90;;;0.80;;
8317;SDS011;4196;48.926;8.964;2023-03-31T14:25:46;2.77;;;1.13;;
8317;SDS011;4196;48.926;8.964;2023-03-31T14:38:17;1.37;;;1.20;;
8317;SDS011;4196;48.926;8.964;2023-03-31T14:41:06;1.93;;;0.80;;
8317;SDS011;4196;48.926;8.964;2023-03-31T14:44:01;1.07;;;0.80;;
8317;SDS011;4196;48.926;8.964;2023-03-31T14:46:49;1.13;;;0.60;;
8317;SDS011;4196;48.926;8.964;2023-03-31T14:49:37;3.30;;;0.87;;
8317;SDS011;4196;48.926;8.964;2023-03-31T14:52:24;2.47;;;0.77;;
8317;SDS011;4196;48.926;8.964;2023-03-31T14:55:16;1.17;;;0.63;;
8317;SDS011;4196;48.926;8.964;2023-03-31T14:58:07;4.80;;;0.80;;
8317;SDS011;4196;48.926;8.964;2023-03-31T15:00:57;1.10;;;0.80;;
8317;SDS011;4196;48.926;8.964;2023-03-31T15:03:45;1.70;;;0.67;;
8317;SDS011;4196;48.926;8.964;2023-03-31T15:06:32;0.60;;;0.60;;
8317;SDS011;4196;48.926;8.964;2023-03-31T15:09:37;1.20;;;0.63;;
8317;SDS011;4196;48.926;8.964;2023-03-31T15:12:26;1.70;;;0.70;;
8317;SDS011;4196;48.926;8.964;2023-03-31T15:15:14;0.47;;;0.47;;
8317;SDS011;4196;48.926;8.964;2023-03-31T15:18:04;4.67;;;1.43;;
8317;SDS011;4196;48.926;8.964;2023-03-31T15:20:52;0.50;;;0.40;;
8317;SDS011;4196;48.926;8.964;2023-03-31T15:23:39;0.93;;;0.70;;
8317;SDS011;4196;48.926;8.964;2023-03-31T15:26:33;1.90;;;0.63;;
8317;SDS011;4196;48.926;8.964;2023-03-31T15:32:23;2.33;;;0.50;;
8317;SDS011;4196;48.926;8.964;2023-03-31T15:35:29;2.17;;;0.87;;
8317;SDS011;4196;48.926;8.964;2023-03-31T15:38:21;2.43;;;1.17;;
8317;SDS011;4196;48.926;8.964;2023-03-31T15:41:13;1.47;;;0.60;;
8317;SDS011;4196;48.926;8.964;2023-03-31T15:44:06;1.83;;;0.70;;
8317;SDS011;4196;48.926;8.964;2023-03-31T15:47:16;1.47;;;0.70;;
8317;SDS011;4196;48.926;8.964;2023-03-31T15:52:55;1.37;;;0.60;;
8317;SDS011;4196;48.926;8.964;2023-03-31T15:55:46;4.63;;;1.53;;
8317;SDS011;4196;48.926;8.964;2023-03-31T16:01:42;2.23;;;1.43;;
8317;SDS011;4196;48.926;8.964;2023-03-31T16:04:31;1.40;;;0.90;;
8317;SDS011;4196;48.926;8.964;2023-03-31T16:10:08;0.40;;;0.40;;
8317;SDS011;4196;48.926;8.964;2023-03-31T16:13:09;3.17;;;0.90;;
8317;SDS011;4196;48.926;8.964;2023-03-31T16:16:05;2.33;;;1.20;;
8317;SDS011;4196;48.926;8.964;2023-03-31T16:19:02;4.03;;;2.33;;
8317;SDS011;4196;48.926;8.964;2023-03-31T16:21:55;2.53;;;1.20;;
8317;SDS011;4196;48.926;8.964;2023-03-31T16:24:47;1.90;;;0.97;;
8317;SDS011;4196;48.926;8.964;2023-03-31T16:27:38;1.73;;;0.97;;
8317;SDS011;4196;48.926;8.964;2023-03-31T16:30:36;1.37;;;0.93;;
8317;SDS011;4196;48.926;8.964;2023-03-31T16:33:24;2.73;;;0.80;;
8317;SDS011;4196;48.926;8.964;2023-03-31T16:36:11;1.33;;;0.70;;
8317;SDS011;4196;48.926;8.964;2023-03-31T16:39:01;3.90;;;0.93;;
8317;SDS011;4196;48.926;8.964;2023-03-31T16:41:50;0.70;;;0.60;;
8317;SDS011;4196;48.926;8.964;2023-03-31T16:44:36;1.90;;;1.63;;
8317;SDS011;4196;48.926;8.964;2023-03-31T16:47:22;1.40;;;1.07;;
8317;SDS011;4196;48.926;8.964;2023-03-31T16:50:30;1.40;;;0.60;;
8317;SDS011;4196;48.926;8.964;2023-03-31T16:53:17;0.93;;;0.50;;
8317;SDS011;4196;48.926;8.964;2023-03-31T16:56:05;1.40;;;0.60;;
8317;SDS011;4196;48.926;8.964;2023-03-31T16:58:53;0.63;;;0.60;;
8317;SDS011;4196;48.926;8.964;2023-03-31T17:01:40;0.60;;;0.50;;
8317;SDS011;4196;48.926;8.964;2023-03-31T17:04:26;3.13;;;1.00;;
8317;SDS011;4196;48.926;8.964;2023-03-31T17:07:13;1.07;;;0.77;;
8317;SDS011;4196;48.926;8.964;2023-03-31T17:09:59;3.97;;;0.83;;
8317;SDS011;4196;48.926;8.964;2023-03-31T17:12:46;0.73;;;0.70;;
8317;SDS011;4196;48.926;8.964;2023-03-31T17:15:32;1.20;;;1.10;;
8317;SDS011;4196;48.926;8.964;2023-03-31T17:18:21;2.53;;;1.13;;
8317;SDS011;4196;48.926;8.964;2023-03-31T17:21:09;1.20;;;0.57;;
8317;SDS011;4196;48.926;8.964;2023-03-31T17:23:58;1.33;;;0.80;;
8317;SDS011;4196;48.926;8.964;2023-03-31T17:26:48;2.57;;;0.87;;
8317;SDS011;4196;48.926;8.964;2023-03-31T17:29:34;1.97;;;0.57;;
8317;SDS011;4196;48.926;8.964;2023-03-31T17:32:21;1.80;;;1.00;;
8317;SDS011;4196;48.926;8.964;2023-03-31T17:35:08;1.17;;;0.90;;
8317;SDS011;4196;48.926;8.964;2023-03-31T17:37:55;1.00;;;0.80;;
8317;SDS011;4196;48.926;8.964;2023-03-31T17:40:42;1.27;;;0.93;;
8317;SDS011;4196;48.926;8.964;2023-03-31T17:43:28;0.83;;;0.60;;
8317;SDS011;4196;48.926;8.964;2023-03-31T17:46:15;1.93;;;0.90;;
8317;SDS011;4196;48.926;8.964;2023-03-31T17:49:02;2.90;;;1.30;;
8317;SDS011;4196;48.926;8.964;2023-03-31T17:51:49;4.80;;;1.60;;
8317;SDS011;4196;48.926;8.964;2023-03-31T17:54:36;4.50;;;1.30;;
8317;SDS011;4196;48.926;8.964;2023-03-31T17:57:22;1.03;;;0.70;;
8317;SDS011;4196;48.926;8.964;2023-03-31T18:04:47;2.97;;;1.23;;
8317;SDS011;4196;48.926;8.964;2023-03-31T18:07:34;0.80;;;0.80;;
8317;SDS011;4196;48.926;8.964;2023-03-31T18:10:21;1.13;;;1.00;;
8317;SDS011;4196;48.926;8.964;2023-03-31T18:13:07;1.53;;;0.70;;
8317;SDS011;4196;48.926;8.964;2023-03-31T18:15:54;2.37;;;1.40;;
8317;SDS011;4196;48.926;8.964;2023-03-31T18:18:41;2.17;;;1.30;;
8317;SDS011;4196;48.926;8.964;2023-03-31T18:21:29;1.90;;;1.40;;
8317;SDS011;4196;48.926;8.964;2023-03-31T18:24:15;1.10;;;1.07;;
8317;SDS011;4196;48.926;8.964;2023-03-31T18:27:04;0.87;;;0.87;;
8317;SDS011;4196;48.926;8.964;2023-03-31T18:29:51;1.13;;;1.00;;
8317;SDS011;4196;48.926;8.964;2023-03-31T18:32:38;0.90;;;0.70;;
8317;SDS011;4196;48.926;8.964;2023-03-31T18:35:24;1.07;;;0.87;;
8317;SDS011;4196;48.926;8.964;2023-03-31T18:38:12;0.80;;;0.43;;
8317;SDS011;4196;48.926;8.964;2023-03-31T18:40:59;0.40;;;0.40;;
8317;SDS011;4196;48.926;8.964;2023-03-31T18:43:46;1.67;;;0.70;;
8317;SDS011;4196;48.926;8.964;2023-03-31T18:46:33;0.53;;;0.53;;
8317;SDS011;4196;48.926;8.964;2023-03-31T18:49:19;0.77;;;0.73;;
8317;SDS011;4196;48.926;8.964;2023-03-31T18:52:06;1.43;;;0.90;;
8317;SDS011;4196;48.926;8.964;2023-03-31T18:54:52;0.80;;;0.80;;
8317;SDS011;4196;48.926;8.964;2023-03-31T18:57:39;2.07;;;0.93;;
8317;SDS011;4196;48.926;8.964;2023-03-31T19:00:25;0.70;;;0.70;;
8317;SDS011;4196;48.926;8.964;2023-03-31T19:03:12;1.63;;;0.90;;
8317;SDS011;4196;48.926;8.964;2023-03-31T19:06:02;2.13;;;0.90;;
8317;SDS011;4196;48.926;8.964;2023-03-31T19:08:50;1.53;;;1.23;;
8317;SDS011;4196;48.926;8.964;2023-03-31T19:11:39;2.13;;;1.10;;
8317;SDS011;4196;48.926;8.964;2023-03-31T19:14:26;1.67;;;0.80;;
8317;SDS011;4196;48.926;8.964;2023-03-31T19:17:13;1.70;;;0.97;;
8317;SDS011;4196;48.926;8.964;2023-03-31T19:19:59;0.73;;;0.70;;
8317;SDS011;4196;48.926;8.964;2023-03-31T19:22:46;0.73;;;0.63;;
8317;SDS011;4196;48.926;8.964;2023-03-31T19:25:35;0.87;;;0.80;;
8317;SDS011;4196;48.926;8.964;2023-03-31T19:28:22;1.40;;;0.80;;
8317;SDS011;4196;48.926;8.964;2023-03-31T19:31:09;2.23;;;0.93;;
8317;SDS011;4196;48.926;8.964;2023-03-31T19:33:56;3.97;;;1.40;;
8317;SDS011;4196;48.926;8.964;2023-03-31T19:36:43;4.23;;;1.60;;
8317;SDS011;4196;48.926;8.964;2023-03-31T19:39:30;2.47;;;0.90;;
8317;SDS011;4196;48.926;8.964;2023-03-31T19:42:16;2.33;;;1.10;;
8317;SDS011;4196;48.926;8.964;2023-03-31T19:45:03;1.50;;;0.87;;
8317;SDS011;4196;48.926;8.964;2023-03-31T19:47:50;3.90;;;1.10;;
8317;SDS011;4196;48.926;8.964;2023-03-31T19:50:36;0.93;;;0.80;;
8317;SDS011;4196;48.926;8.964;2023-03-31T19:53:23;1.57;;;1.47;;
8317;SDS011;4196;48.926;8.964;2023-03-31T19:56:12;8.13;;;1.93;;
8317;SDS011;4196;48.926;8.964;2023-03-31T19:59:00;3.47;;;1.20;;
8317;SDS011;4196;48.926;8.964;2023-03-31T20:01:47;3.10;;;1.80;;
8317;SDS011;4196;48.926;8.964;2023-03-31T20:04:34;1.70;;;0.93;;
8317;SDS011;4196;48.926;8.964;2023-03-31T20:07:22;1.47;;;0.90;;
8317;SDS011;4196;48.926;8.964;2023-03-31T20:10:08;1.20;;;1.10;;
8317;SDS011;4196;48.926;8.964;2023-03-31T20:12:58;2.20;;;0.90;;
8317;SDS011;4196;48.926;8.964;2023-03-31T20:15:45;8.20;;;2.93;;
8317;SDS011;4196;48.926;8.964;2023-03-31T20:18:32;2.17;;;0.90;;
8317;SDS011;4196;48.926;8.964;2023-03-31T20:21:21;1.40;;;1.20;;
8317;SDS011;4196;48.926;8.964;2023-03-31T20:24:12;2.00;;;1.30;;
8317;SDS011;4196;48.926;8.964;2023-03-31T20:27:01;5.43;;;2.87;;
8317;SDS011;4196;48.926;8.964;2023-03-31T20:29:48;4.97;;;2.30;;
8317;SDS011;4196;48.926;8.964;2023-03-31T20:32:34;1.87;;;1.20;;